Meteorología y climatología de Navarra
Datos de la estación - Meteo Navarra

Estación de Aguilar de Codés GN

Altitud 736 m.


Datos desde el 12/09/2019 hasta el 13/09/2019 en horario solar
Los datos son PROVISIONALES

Anterior Página 1 de 1 Siguiente Descargar: Formato para Excel 2000 o superior   Formato csv   Formato para OpenOffice Calc
Fecha Temperatura Humedad relativa Radiación global Insolación Precipitación Vel. viento 10 m Vel. viento 10 m Dir. viento 10 m
ºC % W/m² s l/m² m/s km/h º
12/09/2019 0:00 10.9 89 0.0 0 0.0 4.0 14.3 309
12/09/2019 0:10 10.9 90 0.0 0 0.0 2.7 9.9 298
12/09/2019 0:20 10.9 90 0.0 0 0.0 2.9 10.4 290
12/09/2019 0:30 10.9 90 0.0 0 0.0 3.1 11.0 304
12/09/2019 0:40 10.8 90 0.0 0 0.0 2.8 10.2 302
12/09/2019 0:50 10.8 90 0.0 0 0.0 3.0 10.8 289
12/09/2019 1:00 10.8 91 0.0 0 0.0 3.4 12.1 293
12/09/2019 1:10 10.7 91 0.0 0 0.0 3.2 11.4 297
12/09/2019 1:20 10.7 91 0.0 0 0.0 3.0 10.8 291
12/09/2019 1:30 10.8 91 0.0 0 0.0 3.0 10.8 285
12/09/2019 1:40 10.6 91 0.0 0 0.0 3.4 12.3 286
12/09/2019 1:50 10.7 92 0.0 0 0.0 3.1 11.2 295
12/09/2019 2:00 10.6 92 0.0 0 0.0 2.7 9.6 307
12/09/2019 2:10 10.6 92 0.0 0 0.0 3.0 10.6 290
12/09/2019 2:20 10.6 91 0.0 0 0.0 2.6 9.5 284
12/09/2019 2:30 10.5 92 0.0 0 0.0 2.6 9.5 278
12/09/2019 2:40 10.5 92 0.0 0 0.0 2.6 9.4 280
12/09/2019 2:50 10.2 92 0.0 0 0.0 3.3 11.8 280
12/09/2019 3:00 10.3 93 0.0 0 0.0 3.5 12.6 284
12/09/2019 3:10 10.4 93 0.0 0 0.0 2.4 8.5 293
12/09/2019 3:20 10.4 92 0.0 0 0.0 3.4 12.2 296
12/09/2019 3:30 10.4 92 0.0 0 0.0 3.4 12.1 291
12/09/2019 3:40 10.2 92 0.0 0 0.0 3.2 11.6 275
12/09/2019 3:50 10.2 93 0.0 0 0.0 2.6 9.4 304
12/09/2019 4:00 10.4 92 0.0 0 0.0 2.7 9.7 311
12/09/2019 4:10 10.5 91 0.0 0 0.0 2.2 7.9 311
12/09/2019 4:20 10.2 91 0.0 0 0.0 2.4 8.5 308
12/09/2019 4:30 10.1 92 0.0 0 0.0 2.1 7.5 291
12/09/2019 4:40 10.0 92 0.0 0 0.0 3.4 12.1 288
12/09/2019 4:50 10.1 92 0.0 0 0.0 3.7 13.4 287
12/09/2019 5:00 9.8 92 0.0 0 0.0 3.5 12.7 275
12/09/2019 5:10 9.8 93 0.0 0 0.0 2.7 9.7 278
12/09/2019 5:20 9.7 93 0.0 0 0.0 1.6 5.6 256
12/09/2019 5:30 9.8 93 0.0 0 0.0 2.3 8.1 281
12/09/2019 5:40 9.7 93 0.0 0 0.0 2.6 9.3 274
12/09/2019 5:50 9.8 93 0.0 0 0.0 3.6 12.9 303
12/09/2019 6:00 9.8 92 13.8 0 0.0 2.6 9.3 292
12/09/2019 6:10 9.6 93 32.9 382 0.0 2.1 7.4 280
12/09/2019 6:20 9.6 93 54.2 600 0.0 1.5 5.4 238
12/09/2019 6:30 9.6 93 79.9 600 0.0 1.1 4.0 254
12/09/2019 6:40 9.9 92 106.9 600 0.0 2.0 7.1 325
12/09/2019 6:50 10.3 92 135.5 600 0.0 2.3 8.4 314
12/09/2019 7:00 10.6 91 165.3 600 0.0 2.7 9.5 296
12/09/2019 7:10 10.8 90 193.8 600 0.0 2.6 9.3 300
12/09/2019 7:20 11.3 89 214.1 600 0.0 2.6 9.4 287
12/09/2019 7:30 11.7 87 238.9 600 0.0 2.5 8.9 295
12/09/2019 7:40 12.0 85 280.6 600 0.0 2.5 9.1 301
12/09/2019 7:50 12.4 83 324.6 600 0.0 2.9 10.3 305
12/09/2019 8:00 12.6 81 353.8 600 0.0 3.3 12.0 313
12/09/2019 8:10 12.9 80 389.4 600 0.0 2.7 9.8 311
12/09/2019 8:20 13.2 79 423.7 600 0.0 3.1 11.2 306
12/09/2019 8:30 13.6 76 454.6 600 0.0 3.1 11.2 308
12/09/2019 8:40 13.9 75 483.4 600 0.0 2.7 9.7 308
12/09/2019 8:50 14.5 72 514.2 600 0.0 2.9 10.4 314
12/09/2019 9:00 14.8 69 542.7 600 0.0 2.6 9.4 305
12/09/2019 9:10 15.5 68 567.7 600 0.0 1.9 6.8 289
12/09/2019 9:20 15.7 65 595.5 600 0.0 2.4 8.7 317
12/09/2019 9:30 16.1 64 620.8 600 0.0 2.6 9.3 314
12/09/2019 9:40 16.5 62 644.1 600 0.0 2.0 7.2 323
12/09/2019 9:50 16.8 60 664.0 600 0.0 1.3 4.6 330
12/09/2019 10:00 18.3 56 686.9 600 0.0 0.8 3.0 86
12/09/2019 10:10 18.9 54 706.1 600 0.0 0.9 3.3 77
12/09/2019 10:20 19.4 51 724.2 600 0.0 0.9 3.1 132
12/09/2019 10:30 19.8 51 741.3 600 0.0 0.9 3.2 52
12/09/2019 10:40 21.1 47 756.6 600 0.0 1.1 3.9 78
12/09/2019 10:50 21.1 47 770.6 600 0.0 0.8 2.9 30
12/09/2019 11:00 21.1 47 782.4 600 0.0 0.9 3.1 15
12/09/2019 11:10 21.4 46 792.8 600 0.0 0.7 2.7 39
12/09/2019 11:20 22.0 43 803.0 600 0.0 1.5 5.2 154
12/09/2019 11:30 22.4 41 811.0 600 0.0 0.8 2.8 53
12/09/2019 11:40 22.7 42 815.0 600 0.0 1.4 4.9 91
12/09/2019 11:50 23.5 41 819.0 600 0.0 1.7 5.9 107
12/09/2019 12:00 23.7 40 824.0 600 0.0 2.1 7.7 94
12/09/2019 12:10 24.0 40 826.0 600 0.0 1.4 5.0 94
12/09/2019 12:20 24.0 39 826.0 600 0.0 1.9 7.0 74
12/09/2019 12:30 24.7 38 824.0 600 0.0 1.7 6.2 117
12/09/2019 12:40 24.7 37 820.0 600 0.0 1.6 5.6 121
12/09/2019 12:50 25.1 36 814.0 600 0.0 1.9 6.7 109
12/09/2019 13:00 25.3 34 808.0 600 0.0 1.9 6.9 98
12/09/2019 13:10 25.3 34 800.0 600 0.0 2.1 7.4 110
12/09/2019 13:20 25.2 35 788.6 600 0.0 2.2 7.8 103
12/09/2019 13:30 25.7 34 777.1 600 0.0 1.6 5.9 61
12/09/2019 13:40 26.0 33 761.3 600 0.0 1.8 6.6 73
12/09/2019 13:50 25.8 34 746.3 600 0.0 1.7 6.0 59
12/09/2019 14:00 25.6 33 732.0 600 0.0 1.8 6.4 110
12/09/2019 14:10 25.5 31 716.0 600 0.0 2.0 7.0 160
12/09/2019 14:20 26.0 30 697.7 600 0.0 2.9 10.5 169
12/09/2019 14:30 26.5 28 676.7 600 0.0 2.9 10.3 151
12/09/2019 14:40 25.9 30 651.2 600 0.0 1.7 5.9 147
12/09/2019 14:50 26.2 30 627.3 600 0.0 2.0 7.1 163
12/09/2019 15:00 26.4 29 602.2 600 0.0 1.1 4.0 136
12/09/2019 15:10 26.8 28 576.0 600 0.0 1.3 4.8 75
12/09/2019 15:20 26.7 29 547.9 600 0.0 1.0 3.5 77
12/09/2019 15:30 26.8 29 519.2 600 0.0 1.1 4.0 79
12/09/2019 15:40 26.3 30 489.7 600 0.0 1.4 5.0 135
12/09/2019 15:50 26.0 31 460.1 600 0.0 1.1 4.0 73
12/09/2019 16:00 26.6 30 430.1 600 0.0 1.8 6.3 123
12/09/2019 16:10 26.3 30 399.6 600 0.0 2.4 8.6 114
12/09/2019 16:20 26.5 30 368.8 600 0.0 2.1 7.6 95
12/09/2019 16:30 26.4 31 335.3 600 0.0 1.1 4.1 98
12/09/2019 16:40 26.0 36 297.5 600 0.0 2.0 7.1 16
12/09/2019 16:50 24.7 43 265.6 600 0.0 3.3 12.0 360
12/09/2019 17:00 24.4 46 233.3 600 0.0 2.4 8.5 6
12/09/2019 17:10 24.3 47 200.8 600 0.0 3.5 12.6 353
12/09/2019 17:20 23.8 50 169.9 600 0.0 3.9 14.0 360
12/09/2019 17:30 23.2 53 139.1 600 0.0 4.3 15.3 341
12/09/2019 17:40 22.7 55 109.8 600 0.0 3.7 13.2 337
12/09/2019 17:50 22.2 57 80.7 600 0.0 3.1 11.1 333
12/09/2019 18:00 21.8 58 44.5 334 0.0 2.9 10.4 323
12/09/2019 18:10 21.4 60 18.8 0 0.0 2.7 9.9 314
12/09/2019 18:20 20.9 62 1.5 0 0.0 2.8 10.2 314
12/09/2019 18:30 20.5 64 0.0 0 0.0 2.2 7.8 316
12/09/2019 18:40 20.0 66 0.0 0 0.0 2.9 10.3 291
12/09/2019 18:50 19.6 67 0.0 0 0.0 3.0 10.9 286
12/09/2019 19:00 19.0 69 0.0 0 0.0 2.7 9.7 286
12/09/2019 19:10 18.8 70 0.0 0 0.0 3.0 10.6 285
12/09/2019 19:20 18.6 71 0.0 0 0.0 2.8 10.0 278
12/09/2019 19:30 18.5 71 0.0 0 0.0 3.0 10.6 273
12/09/2019 19:40 18.3 72 0.0 0 0.0 2.1 7.6 272
12/09/2019 19:50 18.0 72 0.0 0 0.0 2.2 7.8 261
12/09/2019 20:00 17.9 72 0.0 0 0.0 2.2 8.0 259
12/09/2019 20:10 17.7 73 0.0 0 0.0 2.3 8.2 274
12/09/2019 20:20 17.6 74 0.0 0 0.0 2.7 9.7 280
12/09/2019 20:30 17.2 76 0.0 0 0.0 3.4 12.2 279
12/09/2019 20:40 17.0 76 0.0 0 0.0 2.6 9.2 273
12/09/2019 20:50 17.0 76 0.0 0 0.0 2.7 9.6 272
12/09/2019 21:00 16.9 77 0.0 0 0.0 1.8 6.4 233
12/09/2019 21:10 16.7 76 0.0 0 0.0 1.2 4.4 240
12/09/2019 21:20 16.6 77 0.0 0 0.0 1.2 4.4 259
12/09/2019 21:30 16.5 78 0.0 0 0.0 3.8 13.7 291
12/09/2019 21:40 16.9 75 0.0 0 0.0 4.5 16.3 304
12/09/2019 21:50 16.8 75 0.0 0 0.0 3.0 10.8 277
12/09/2019 22:00 16.4 77 0.0 0 0.0 1.7 6.3 253
12/09/2019 22:10 16.2 77 0.0 0 0.0 1.8 6.6 228
12/09/2019 22:20 16.3 76 0.0 0 0.0 2.3 8.4 232
12/09/2019 22:30 16.3 76 0.0 0 0.0 4.0 14.2 298
12/09/2019 22:40 15.6 81 0.0 0 0.0 6.2 22.3 314
12/09/2019 22:50 15.2 83 0.0 0 0.0 5.0 18.1 309
12/09/2019 23:00 15.0 84 0.0 0 0.0 3.8 13.6 298
12/09/2019 23:10 15.2 82 0.0 0 0.0 2.7 9.8 297
12/09/2019 23:20 15.5 79 0.0 0 0.0 1.6 5.7 298
12/09/2019 23:30 15.2 81 0.0 0 0.0 1.9 6.9 312
12/09/2019 23:40 14.6 84 0.0 0 0.0 2.3 8.4 288
12/09/2019 23:50 15.2 80 0.0 0 0.0 2.9 10.4 302
Anterior Página 1 de 1 Siguiente

NOTA: Tipo de datos según el color:
   - Valores diarios o 10 minutos correctos
   - Valores diarios calculados a partir de un número de datos 10 minutos menor que 144 y mayor que 120, o de un número de datos semihorarios menor que 48 y mayor que 40 (caso de las estaciones de Riegos de Navarra y del MARM)
   - Valores diez minutos estimados


Contacto        Enlaces        Aviso legal